sensor_id;sensor_type;location;lat;lon;timestamp;P1;durP1;ratioP1;P2;durP2;ratioP2
27925;SDS011;15267;47.838;12.128;2023-11-19T00:00:25;4.30;;;3.90;;
27925;SDS011;15267;47.838;12.128;2023-11-19T00:02:51;4.15;;;3.72;;
27925;SDS011;15267;47.838;12.128;2023-11-19T00:05:17;6.07;;;4.40;;
27925;SDS011;15267;47.838;12.128;2023-11-19T00:07:43;5.05;;;3.70;;
27925;SDS011;15267;47.838;12.128;2023-11-19T00:10:09;4.75;;;3.75;;
27925;SDS011;15267;47.838;12.128;2023-11-19T00:12:42;3.88;;;2.42;;
27925;SDS011;15267;47.838;12.128;2023-11-19T00:15:09;4.88;;;3.70;;
27925;SDS011;15267;47.838;12.128;2023-11-19T00:17:39;3.80;;;3.22;;
27925;SDS011;15267;47.838;12.128;2023-11-19T00:20:06;3.50;;;2.97;;
27925;SDS011;15267;47.838;12.128;2023-11-19T00:22:32;4.10;;;3.67;;
27925;SDS011;15267;47.838;12.128;2023-11-19T00:24:58;3.22;;;2.88;;
27925;SDS011;15267;47.838;12.128;2023-11-19T00:27:25;4.25;;;3.50;;
27925;SDS011;15267;47.838;12.128;2023-11-19T00:29:51;4.10;;;3.10;;
27925;SDS011;15267;47.838;12.128;2023-11-19T00:32:17;3.35;;;3.05;;
27925;SDS011;15267;47.838;12.128;2023-11-19T00:34:44;3.75;;;3.08;;
27925;SDS011;15267;47.838;12.128;2023-11-19T00:37:10;3.70;;;2.92;;
27925;SDS011;15267;47.838;12.128;2023-11-19T00:39:36;4.40;;;3.47;;
27925;SDS011;15267;47.838;12.128;2023-11-19T00:42:02;5.75;;;3.72;;
27925;SDS011;15267;47.838;12.128;2023-11-19T00:44:28;4.03;;;3.63;;
27925;SDS011;15267;47.838;12.128;2023-11-19T00:46:54;6.30;;;3.80;;
27925;SDS011;15267;47.838;12.128;2023-11-19T00:49:20;3.78;;;3.40;;
27925;SDS011;15267;47.838;12.128;2023-11-19T00:51:46;4.60;;;4.10;;
27925;SDS011;15267;47.838;12.128;2023-11-19T00:54:12;3.80;;;3.40;;
27925;SDS011;15267;47.838;12.128;2023-11-19T00:56:38;3.53;;;3.22;;
27925;SDS011;15267;47.838;12.128;2023-11-19T00:59:04;3.83;;;3.20;;
27925;SDS011;15267;47.838;12.128;2023-11-19T01:01:30;4.10;;;3.70;;
27925;SDS011;15267;47.838;12.128;2023-11-19T01:03:56;4.00;;;3.42;;
27925;SDS011;15267;47.838;12.128;2023-11-19T01:06:29;3.33;;;2.85;;
27925;SDS011;15267;47.838;12.128;2023-11-19T01:08:55;4.63;;;3.40;;
27925;SDS011;15267;47.838;12.128;2023-11-19T01:11:24;4.35;;;3.50;;
27925;SDS011;15267;47.838;12.128;2023-11-19T01:13:50;3.42;;;3.13;;
27925;SDS011;15267;47.838;12.128;2023-11-19T01:16:16;3.35;;;3.05;;
27925;SDS011;15267;47.838;12.128;2023-11-19T01:18:42;4.70;;;3.70;;
27925;SDS011;15267;47.838;12.128;2023-11-19T01:21:08;4.00;;;3.35;;
27925;SDS011;15267;47.838;12.128;2023-11-19T01:23:34;5.47;;;3.33;;
27925;SDS011;15267;47.838;12.128;2023-11-19T01:26:02;4.18;;;3.47;;
27925;SDS011;15267;47.838;12.128;2023-11-19T01:28:28;5.20;;;3.42;;
27925;SDS011;15267;47.838;12.128;2023-11-19T01:30:55;3.22;;;2.85;;
27925;SDS011;15267;47.838;12.128;2023-11-19T01:33:21;3.10;;;2.80;;
27925;SDS011;15267;47.838;12.128;2023-11-19T01:35:47;6.55;;;3.08;;
27925;SDS011;15267;47.838;12.128;2023-11-19T01:38:13;4.22;;;3.10;;
27925;SDS011;15267;47.838;12.128;2023-11-19T01:40:39;3.40;;;3.03;;
27925;SDS011;15267;47.838;12.128;2023-11-19T01:43:05;3.72;;;3.25;;
27925;SDS011;15267;47.838;12.128;2023-11-19T01:45:31;3.45;;;2.90;;
27925;SDS011;15267;47.838;12.128;2023-11-19T01:48:00;3.25;;;2.95;;
27925;SDS011;15267;47.838;12.128;2023-11-19T01:50:26;3.80;;;3.40;;
27925;SDS011;15267;47.838;12.128;2023-11-19T01:52:53;3.42;;;2.88;;
27925;SDS011;15267;47.838;12.128;2023-11-19T01:55:20;3.70;;;3.25;;
27925;SDS011;15267;47.838;12.128;2023-11-19T01:57:46;5.38;;;4.28;;
27925;SDS011;15267;47.838;12.128;2023-11-19T02:00:14;4.40;;;3.40;;
27925;SDS011;15267;47.838;12.128;2023-11-19T02:02:40;3.42;;;3.05;;
27925;SDS011;15267;47.838;12.128;2023-11-19T02:05:07;3.95;;;3.13;;
27925;SDS011;15267;47.838;12.128;2023-11-19T02:07:33;3.15;;;2.58;;
27925;SDS011;15267;47.838;12.128;2023-11-19T02:09:59;5.32;;;3.88;;
27925;SDS011;15267;47.838;12.128;2023-11-19T02:12:27;3.22;;;2.92;;
27925;SDS011;15267;47.838;12.128;2023-11-19T02:14:53;3.58;;;2.90;;
27925;SDS011;15267;47.838;12.128;2023-11-19T02:17:29;2.90;;;2.45;;
27925;SDS011;15267;47.838;12.128;2023-11-19T02:20:05;3.17;;;2.50;;
27925;SDS011;15267;47.838;12.128;2023-11-19T02:22:34;2.35;;;2.15;;
27925;SDS011;15267;47.838;12.128;2023-11-19T02:25:00;4.22;;;2.72;;
27925;SDS011;15267;47.838;12.128;2023-11-19T02:30:02;2.60;;;2.40;;
27925;SDS011;15267;47.838;12.128;2023-11-19T02:32:31;2.55;;;2.35;;
27925;SDS011;15267;47.838;12.128;2023-11-19T02:34:57;3.08;;;2.47;;
27925;SDS011;15267;47.838;12.128;2023-11-19T02:37:23;2.22;;;2.03;;
27925;SDS011;15267;47.838;12.128;2023-11-19T02:39:49;2.38;;;2.17;;
27925;SDS011;15267;47.838;12.128;2023-11-19T02:42:15;2.75;;;1.90;;
27925;SDS011;15267;47.838;12.128;2023-11-19T02:44:43;2.33;;;2.13;;
27925;SDS011;15267;47.838;12.128;2023-11-19T02:47:10;2.03;;;1.80;;
27925;SDS011;15267;47.838;12.128;2023-11-19T02:49:36;2.38;;;2.15;;
27925;SDS011;15267;47.838;12.128;2023-11-19T02:52:03;2.60;;;2.20;;
27925;SDS011;15267;47.838;12.128;2023-11-19T02:54:30;2.38;;;2.17;;
27925;SDS011;15267;47.838;12.128;2023-11-19T02:57:00;2.58;;;2.13;;
27925;SDS011;15267;47.838;12.128;2023-11-19T02:59:29;2.13;;;1.92;;
27925;SDS011;15267;47.838;12.128;2023-11-19T03:02:03;2.53;;;1.88;;
27925;SDS011;15267;47.838;12.128;2023-11-19T03:04:31;1.70;;;1.60;;
27925;SDS011;15267;47.838;12.128;2023-11-19T03:06:57;2.85;;;1.63;;
27925;SDS011;15267;47.838;12.128;2023-11-19T03:09:23;1.85;;;1.70;;
27925;SDS011;15267;47.838;12.128;2023-11-19T03:11:49;1.50;;;1.38;;
27925;SDS011;15267;47.838;12.128;2023-11-19T03:14:15;2.10;;;1.40;;
27925;SDS011;15267;47.838;12.128;2023-11-19T03:16:44;1.98;;;1.40;;
27925;SDS011;15267;47.838;12.128;2023-11-19T03:19:11;2.08;;;1.40;;
27925;SDS011;15267;47.838;12.128;2023-11-19T03:21:37;1.70;;;1.35;;
27925;SDS011;15267;47.838;12.128;2023-11-19T03:24:03;1.77;;;1.33;;
27925;SDS011;15267;47.838;12.128;2023-11-19T03:26:29;2.88;;;1.10;;
27925;SDS011;15267;47.838;12.128;2023-11-19T03:28:55;2.40;;;1.20;;
27925;SDS011;15267;47.838;12.128;2023-11-19T03:31:22;1.17;;;1.08;;
27925;SDS011;15267;47.838;12.128;2023-11-19T03:33:48;3.75;;;1.20;;
27925;SDS011;15267;47.838;12.128;2023-11-19T03:36:14;1.88;;;1.08;;
27925;SDS011;15267;47.838;12.128;2023-11-19T03:38:40;1.08;;;0.93;;
27925;SDS011;15267;47.838;12.128;2023-11-19T03:41:11;1.17;;;0.90;;
27925;SDS011;15267;47.838;12.128;2023-11-19T03:43:37;1.35;;;0.93;;
27925;SDS011;15267;47.838;12.128;2023-11-19T03:46:04;1.88;;;1.00;;
27925;SDS011;15267;47.838;12.128;2023-11-19T03:48:30;3.13;;;1.23;;
27925;SDS011;15267;47.838;12.128;2023-11-19T03:50:56;1.02;;;0.90;;
27925;SDS011;15267;47.838;12.128;2023-11-19T03:53:22;1.95;;;1.23;;
27925;SDS011;15267;47.838;12.128;2023-11-19T03:55:49;2.83;;;1.20;;
27925;SDS011;15267;47.838;12.128;2023-11-19T03:58:15;1.63;;;1.27;;
27925;SDS011;15267;47.838;12.128;2023-11-19T04:00:41;1.30;;;1.20;;
27925;SDS011;15267;47.838;12.128;2023-11-19T04:03:07;1.63;;;1.20;;
27925;SDS011;15267;47.838;12.128;2023-11-19T04:05:33;1.30;;;1.20;;
27925;SDS011;15267;47.838;12.128;2023-11-19T04:07:59;1.88;;;1.30;;
27925;SDS011;15267;47.838;12.128;2023-11-19T04:10:25;1.48;;;1.10;;
27925;SDS011;15267;47.838;12.128;2023-11-19T04:12:52;1.63;;;1.30;;
27925;SDS011;15267;47.838;12.128;2023-11-19T04:15:18;1.60;;;1.17;;
27925;SDS011;15267;47.838;12.128;2023-11-19T04:17:44;2.53;;;1.35;;
27925;SDS011;15267;47.838;12.128;2023-11-19T04:20:10;1.40;;;1.30;;
27925;SDS011;15267;47.838;12.128;2023-11-19T04:22:38;1.20;;;1.10;;
27925;SDS011;15267;47.838;12.128;2023-11-19T04:25:04;1.33;;;1.20;;
27925;SDS011;15267;47.838;12.128;2023-11-19T04:27:30;2.70;;;1.45;;
27925;SDS011;15267;47.838;12.128;2023-11-19T04:29:56;1.52;;;1.10;;
27925;SDS011;15267;47.838;12.128;2023-11-19T04:32:22;2.67;;;1.13;;
27925;SDS011;15267;47.838;12.128;2023-11-19T04:34:50;0.70;;;0.70;;
27925;SDS011;15267;47.838;12.128;2023-11-19T04:37:16;1.45;;;1.10;;
27925;SDS011;15267;47.838;12.128;2023-11-19T04:39:43;2.83;;;1.20;;
27925;SDS011;15267;47.838;12.128;2023-11-19T04:42:11;1.40;;;1.10;;
27925;SDS011;15267;47.838;12.128;2023-11-19T04:44:37;2.00;;;1.17;;
27925;SDS011;15267;47.838;12.128;2023-11-19T04:47:03;1.20;;;1.10;;
27925;SDS011;15267;47.838;12.128;2023-11-19T04:49:29;2.58;;;1.20;;
27925;SDS011;15267;47.838;12.128;2023-11-19T04:51:55;1.30;;;1.20;;
27925;SDS011;15267;47.838;12.128;2023-11-19T04:54:21;1.27;;;1.17;;
27925;SDS011;15267;47.838;12.128;2023-11-19T04:56:48;1.50;;;1.40;;
27925;SDS011;15267;47.838;12.128;2023-11-19T04:59:14;2.10;;;1.60;;
27925;SDS011;15267;47.838;12.128;2023-11-19T05:01:40;1.80;;;1.50;;
27925;SDS011;15267;47.838;12.128;2023-11-19T05:04:07;2.42;;;1.40;;
27925;SDS011;15267;47.838;12.128;2023-11-19T05:06:33;1.58;;;1.25;;
27925;SDS011;15267;47.838;12.128;2023-11-19T05:09:00;1.48;;;1.30;;
27925;SDS011;15267;47.838;12.128;2023-11-19T05:11:28;1.60;;;1.27;;
27925;SDS011;15267;47.838;12.128;2023-11-19T05:13:54;1.20;;;1.10;;
27925;SDS011;15267;47.838;12.128;2023-11-19T05:16:20;1.00;;;0.90;;
27925;SDS011;15267;47.838;12.128;2023-11-19T05:18:46;2.25;;;1.20;;
27925;SDS011;15267;47.838;12.128;2023-11-19T05:21:12;2.20;;;1.15;;
27925;SDS011;15267;47.838;12.128;2023-11-19T05:23:38;2.28;;;1.50;;
27925;SDS011;15267;47.838;12.128;2023-11-19T05:26:04;3.10;;;1.40;;
27925;SDS011;15267;47.838;12.128;2023-11-19T05:28:30;1.60;;;1.50;;
27925;SDS011;15267;47.838;12.128;2023-11-19T05:30:56;3.28;;;1.55;;
27925;SDS011;15267;47.838;12.128;2023-11-19T05:33:22;2.53;;;1.60;;
27925;SDS011;15267;47.838;12.128;2023-11-19T05:35:48;1.75;;;1.50;;
27925;SDS011;15267;47.838;12.128;2023-11-19T05:38:14;1.45;;;1.35;;
27925;SDS011;15267;47.838;12.128;2023-11-19T05:40:41;1.45;;;1.35;;
27925;SDS011;15267;47.838;12.128;2023-11-19T05:43:07;2.80;;;1.52;;
27925;SDS011;15267;47.838;12.128;2023-11-19T05:45:33;1.98;;;1.40;;
27925;SDS011;15267;47.838;12.128;2023-11-19T05:47:59;1.73;;;1.40;;
27925;SDS011;15267;47.838;12.128;2023-11-19T05:50:25;2.00;;;1.60;;
27925;SDS011;15267;47.838;12.128;2023-11-19T05:52:51;2.05;;;1.80;;
27925;SDS011;15267;47.838;12.128;2023-11-19T05:55:18;2.10;;;1.60;;
27925;SDS011;15267;47.838;12.128;2023-11-19T05:57:44;2.13;;;1.55;;
27925;SDS011;15267;47.838;12.128;2023-11-19T06:00:10;1.80;;;1.65;;
27925;SDS011;15267;47.838;12.128;2023-11-19T06:02:38;1.88;;;1.45;;
27925;SDS011;15267;47.838;12.128;2023-11-19T06:05:04;1.90;;;1.70;;
27925;SDS011;15267;47.838;12.128;2023-11-19T06:07:31;1.52;;;1.42;;
27925;SDS011;15267;47.838;12.128;2023-11-19T06:09:57;2.22;;;1.65;;
27925;SDS011;15267;47.838;12.128;2023-11-19T06:12:23;1.95;;;1.52;;
27925;SDS011;15267;47.838;12.128;2023-11-19T06:14:49;1.50;;;1.40;;
27925;SDS011;15267;47.838;12.128;2023-11-19T06:17:15;1.70;;;1.60;;
27925;SDS011;15267;47.838;12.128;2023-11-19T06:19:41;2.90;;;1.92;;
27925;SDS011;15267;47.838;12.128;2023-11-19T06:22:07;1.75;;;1.40;;
27925;SDS011;15267;47.838;12.128;2023-11-19T06:24:33;2.78;;;1.80;;
27925;SDS011;15267;47.838;12.128;2023-11-19T06:26:59;1.60;;;1.35;;
27925;SDS011;15267;47.838;12.128;2023-11-19T06:29:25;1.88;;;1.60;;
27925;SDS011;15267;47.838;12.128;2023-11-19T06:31:50;1.80;;;1.50;;
27925;SDS011;15267;47.838;12.128;2023-11-19T06:34:16;2.65;;;2.20;;
27925;SDS011;15267;47.838;12.128;2023-11-19T06:36:43;3.70;;;2.40;;
27925;SDS011;15267;47.838;12.128;2023-11-19T06:39:09;2.65;;;2.05;;
27925;SDS011;15267;47.838;12.128;2023-11-19T06:41:38;3.25;;;2.42;;
27925;SDS011;15267;47.838;12.128;2023-11-19T06:44:04;2.83;;;2.53;;
27925;SDS011;15267;47.838;12.128;2023-11-19T06:46:30;2.42;;;1.90;;
27925;SDS011;15267;47.838;12.128;2023-11-19T06:48:57;2.22;;;2.00;;
27925;SDS011;15267;47.838;12.128;2023-11-19T06:51:23;3.75;;;2.15;;
27925;SDS011;15267;47.838;12.128;2023-11-19T06:53:52;2.58;;;1.80;;
27925;SDS011;15267;47.838;12.128;2023-11-19T06:56:19;4.13;;;2.47;;
27925;SDS011;15267;47.838;12.128;2023-11-19T06:58:46;3.15;;;2.50;;
27925;SDS011;15267;47.838;12.128;2023-11-19T07:01:13;2.80;;;2.50;;
27925;SDS011;15267;47.838;12.128;2023-11-19T07:03:40;3.08;;;2.22;;
27925;SDS011;15267;47.838;12.128;2023-11-19T07:06:06;2.58;;;2.38;;
27925;SDS011;15267;47.838;12.128;2023-11-19T07:08:32;2.42;;;2.13;;
27925;SDS011;15267;47.838;12.128;2023-11-19T07:10:58;3.97;;;1.90;;
27925;SDS011;15267;47.838;12.128;2023-11-19T07:13:23;2.40;;;2.20;;
27925;SDS011;15267;47.838;12.128;2023-11-19T07:15:51;2.38;;;2.17;;
27925;SDS011;15267;47.838;12.128;2023-11-19T07:18:17;2.00;;;1.80;;
27925;SDS011;15267;47.838;12.128;2023-11-19T07:20:43;2.53;;;2.10;;
27925;SDS011;15267;47.838;12.128;2023-11-19T07:23:11;3.20;;;2.60;;
27925;SDS011;15267;47.838;12.128;2023-11-19T07:25:37;3.72;;;3.00;;
27925;SDS011;15267;47.838;12.128;2023-11-19T07:28:03;3.92;;;3.47;;
27925;SDS011;15267;47.838;12.128;2023-11-19T07:30:29;3.20;;;2.72;;
27925;SDS011;15267;47.838;12.128;2023-11-19T07:32:56;3.60;;;2.78;;
27925;SDS011;15267;47.838;12.128;2023-11-19T07:35:22;3.58;;;2.47;;
27925;SDS011;15267;47.838;12.128;2023-11-19T07:37:48;2.92;;;2.30;;
27925;SDS011;15267;47.838;12.128;2023-11-19T07:40:15;1.70;;;1.60;;
27925;SDS011;15267;47.838;12.128;2023-11-19T07:42:41;1.98;;;1.70;;
27925;SDS011;15267;47.838;12.128;2023-11-19T07:45:07;3.45;;;1.70;;
27925;SDS011;15267;47.838;12.128;2023-11-19T07:47:33;2.45;;;1.98;;
27925;SDS011;15267;47.838;12.128;2023-11-19T07:49:59;2.60;;;1.75;;
27925;SDS011;15267;47.838;12.128;2023-11-19T07:52:25;2.83;;;2.28;;
27925;SDS011;15267;47.838;12.128;2023-11-19T07:54:51;2.38;;;1.95;;
27925;SDS011;15267;47.838;12.128;2023-11-19T07:57:17;2.22;;;2.00;;
27925;SDS011;15267;47.838;12.128;2023-11-19T07:59:43;2.35;;;2.08;;
27925;SDS011;15267;47.838;12.128;2023-11-19T08:02:09;2.08;;;1.88;;
27925;SDS011;15267;47.838;12.128;2023-11-19T08:04:35;4.78;;;2.78;;
27925;SDS011;15267;47.838;12.128;2023-11-19T08:07:01;3.17;;;2.67;;
27925;SDS011;15267;47.838;12.128;2023-11-19T08:09:27;2.40;;;2.20;;
27925;SDS011;15267;47.838;12.128;2023-11-19T08:11:53;4.50;;;2.90;;
27925;SDS011;15267;47.838;12.128;2023-11-19T08:14:36;3.22;;;2.60;;
27925;SDS011;15267;47.838;12.128;2023-11-19T08:17:02;1.70;;;1.60;;
27925;SDS011;15267;47.838;12.128;2023-11-19T08:19:29;2.22;;;2.00;;
27925;SDS011;15267;47.838;12.128;2023-11-19T08:21:55;2.25;;;1.95;;
27925;SDS011;15267;47.838;12.128;2023-11-19T08:24:21;3.25;;;2.95;;
27925;SDS011;15267;47.838;12.128;2023-11-19T08:26:47;4.13;;;3.63;;
27925;SDS011;15267;47.838;12.128;2023-11-19T08:29:14;3.40;;;2.90;;
27925;SDS011;15267;47.838;12.128;2023-11-19T08:31:39;4.60;;;3.78;;
27925;SDS011;15267;47.838;12.128;2023-11-19T08:34:05;2.88;;;2.50;;
27925;SDS011;15267;47.838;12.128;2023-11-19T08:36:34;5.68;;;2.38;;
27925;SDS011;15267;47.838;12.128;2023-11-19T08:39:00;6.35;;;2.92;;
27925;SDS011;15267;47.838;12.128;2023-11-19T08:41:26;3.92;;;3.53;;
27925;SDS011;15267;47.838;12.128;2023-11-19T08:43:52;3.25;;;2.60;;
27925;SDS011;15267;47.838;12.128;2023-11-19T08:46:18;3.08;;;2.50;;
27925;SDS011;15267;47.838;12.128;2023-11-19T08:48:44;4.25;;;2.38;;
27925;SDS011;15267;47.838;12.128;2023-11-19T08:51:11;2.78;;;1.77;;
27925;SDS011;15267;47.838;12.128;2023-11-19T08:53:36;3.00;;;2.08;;
27925;SDS011;15267;47.838;12.128;2023-11-19T08:56:02;2.90;;;2.38;;
27925;SDS011;15267;47.838;12.128;2023-11-19T08:58:28;2.38;;;2.15;;
27925;SDS011;15267;47.838;12.128;2023-11-19T09:00:55;6.60;;;4.70;;
27925;SDS011;15267;47.838;12.128;2023-11-19T09:03:21;4.60;;;3.53;;
27925;SDS011;15267;47.838;12.128;2023-11-19T09:05:47;2.58;;;1.60;;
27925;SDS011;15267;47.838;12.128;2023-11-19T09:08:13;3.13;;;2.30;;
27925;SDS011;15267;47.838;12.128;2023-11-19T09:10:39;2.60;;;2.20;;
27925;SDS011;15267;47.838;12.128;2023-11-19T09:13:05;2.08;;;1.80;;
27925;SDS011;15267;47.838;12.128;2023-11-19T09:15:31;2.00;;;1.60;;
27925;SDS011;15267;47.838;12.128;2023-11-19T09:17:57;2.25;;;1.63;;
27925;SDS011;15267;47.838;12.128;2023-11-19T09:20:23;3.42;;;1.70;;
27925;SDS011;15267;47.838;12.128;2023-11-19T09:22:48;2.53;;;2.00;;
27925;SDS011;15267;47.838;12.128;2023-11-19T09:25:14;2.88;;;2.00;;
27925;SDS011;15267;47.838;12.128;2023-11-19T09:27:42;4.88;;;3.10;;
27925;SDS011;15267;47.838;12.128;2023-11-19T09:30:08;5.18;;;2.92;;
27925;SDS011;15267;47.838;12.128;2023-11-19T09:32:34;4.88;;;3.20;;
27925;SDS011;15267;47.838;12.128;2023-11-19T09:35:00;3.33;;;2.40;;
27925;SDS011;15267;47.838;12.128;2023-11-19T09:37:27;2.25;;;1.70;;
27925;SDS011;15267;47.838;12.128;2023-11-19T09:39:53;2.03;;;1.83;;
27925;SDS011;15267;47.838;12.128;2023-11-19T09:42:19;2.25;;;1.75;;
27925;SDS011;15267;47.838;12.128;2023-11-19T09:44:45;2.15;;;1.90;;
27925;SDS011;15267;47.838;12.128;2023-11-19T09:47:13;3.00;;;2.00;;
27925;SDS011;15267;47.838;12.128;2023-11-19T09:49:39;2.22;;;1.65;;
27925;SDS011;15267;47.838;12.128;2023-11-19T09:52:06;1.60;;;1.38;;
27925;SDS011;15267;47.838;12.128;2023-11-19T09:54:32;1.38;;;1.27;;
27925;SDS011;15267;47.838;12.128;2023-11-19T09:56:58;1.50;;;1.38;;
27925;SDS011;15267;47.838;12.128;2023-11-19T09:59:28;1.70;;;1.52;;
27925;SDS011;15267;47.838;12.128;2023-11-19T10:01:54;2.17;;;1.77;;
27925;SDS011;15267;47.838;12.128;2023-11-19T10:04:20;3.10;;;1.60;;
27925;SDS011;15267;47.838;12.128;2023-11-19T10:06:46;1.95;;;1.60;;
27925;SDS011;15267;47.838;12.128;2023-11-19T10:09:13;2.92;;;2.00;;
27925;SDS011;15267;47.838;12.128;2023-11-19T10:11:40;2.80;;;2.30;;
27925;SDS011;15267;47.838;12.128;2023-11-19T10:14:06;3.67;;;2.53;;
27925;SDS011;15267;47.838;12.128;2023-11-19T10:16:34;5.38;;;2.38;;
27925;SDS011;15267;47.838;12.128;2023-11-19T10:19:00;4.28;;;2.63;;
27925;SDS011;15267;47.838;12.128;2023-11-19T10:21:26;2.00;;;1.70;;
27925;SDS011;15267;47.838;12.128;2023-11-19T10:23:56;1.33;;;1.10;;
27925;SDS011;15267;47.838;12.128;2023-11-19T10:26:24;2.25;;;1.42;;
27925;SDS011;15267;47.838;12.128;2023-11-19T10:28:50;2.50;;;1.23;;
27925;SDS011;15267;47.838;12.128;2023-11-19T10:31:17;2.45;;;1.30;;
27925;SDS011;15267;47.838;12.128;2023-11-19T10:33:43;1.30;;;1.17;;
27925;SDS011;15267;47.838;12.128;2023-11-19T10:36:10;1.85;;;1.30;;
27925;SDS011;15267;47.838;12.128;2023-11-19T10:38:37;1.30;;;1.20;;
27925;SDS011;15267;47.838;12.128;2023-11-19T10:41:03;1.60;;;1.50;;
27925;SDS011;15267;47.838;12.128;2023-11-19T10:43:30;2.60;;;1.80;;
27925;SDS011;15267;47.838;12.128;2023-11-19T10:46:08;1.88;;;1.48;;
27925;SDS011;15267;47.838;12.128;2023-11-19T10:48:35;1.42;;;1.33;;
27925;SDS011;15267;47.838;12.128;2023-11-19T10:51:01;1.55;;;1.45;;
27925;SDS011;15267;47.838;12.128;2023-11-19T10:53:30;1.58;;;1.45;;
27925;SDS011;15267;47.838;12.128;2023-11-19T10:55:57;2.03;;;1.60;;
27925;SDS011;15267;47.838;12.128;2023-11-19T10:58:23;2.20;;;1.50;;
27925;SDS011;15267;47.838;12.128;2023-11-19T11:00:51;1.73;;;1.52;;
27925;SDS011;15267;47.838;12.128;2023-11-19T11:03:19;2.40;;;1.45;;
27925;SDS011;15267;47.838;12.128;2023-11-19T11:05:46;2.70;;;1.70;;
27925;SDS011;15267;47.838;12.128;2023-11-19T11:08:13;3.72;;;1.80;;
27925;SDS011;15267;47.838;12.128;2023-11-19T11:10:41;2.05;;;1.67;;
27925;SDS011;15267;47.838;12.128;2023-11-19T11:13:09;2.50;;;1.60;;
27925;SDS011;15267;47.838;12.128;2023-11-19T11:15:35;2.40;;;1.30;;
27925;SDS011;15267;47.838;12.128;2023-11-19T11:18:02;3.42;;;2.75;;
27925;SDS011;15267;47.838;12.128;2023-11-19T11:20:31;1.52;;;1.40;;
27925;SDS011;15267;47.838;12.128;2023-11-19T11:33:41;1.83;;;1.25;;
27925;SDS011;15267;47.838;12.128;2023-11-19T11:36:15;1.67;;;1.25;;
27925;SDS011;15267;47.838;12.128;2023-11-19T11:38:43;3.55;;;1.52;;
27925;SDS011;15267;47.838;12.128;2023-11-19T11:41:19;2.08;;;1.38;;
27925;SDS011;15267;47.838;12.128;2023-11-19T11:43:46;1.67;;;1.20;;
27925;SDS011;15267;47.838;12.128;2023-11-19T11:48:58;1.70;;;1.50;;
27925;SDS011;15267;47.838;12.128;2023-11-19T11:54:31;2.03;;;1.10;;
27925;SDS011;15267;47.838;12.128;2023-11-19T11:59:46;1.20;;;0.98;;
27925;SDS011;15267;47.838;12.128;2023-11-19T12:02:13;1.52;;;1.15;;
27925;SDS011;15267;47.838;12.128;2023-11-19T12:04:39;2.55;;;1.67;;
27925;SDS011;15267;47.838;12.128;2023-11-19T12:07:27;1.95;;;1.20;;
27925;SDS011;15267;47.838;12.128;2023-11-19T12:10:08;1.58;;;1.10;;
27925;SDS011;15267;47.838;12.128;2023-11-19T12:12:34;1.33;;;1.10;;
27925;SDS011;15267;47.838;12.128;2023-11-19T12:15:08;1.55;;;1.30;;
27925;SDS011;15267;47.838;12.128;2023-11-19T12:17:48;1.55;;;1.15;;
27925;SDS011;15267;47.838;12.128;2023-11-19T12:20:14;1.30;;;1.20;;
27925;SDS011;15267;47.838;12.128;2023-11-19T12:22:42;1.20;;;1.00;;
27925;SDS011;15267;47.838;12.128;2023-11-19T12:25:08;1.20;;;0.90;;
27925;SDS011;15267;47.838;12.128;2023-11-19T12:27:44;1.00;;;0.90;;
27925;SDS011;15267;47.838;12.128;2023-11-19T12:30:11;1.13;;;1.00;;
27925;SDS011;15267;47.838;12.128;2023-11-19T12:32:41;1.95;;;1.15;;
27925;SDS011;15267;47.838;12.128;2023-11-19T12:35:07;3.35;;;1.40;;
27925;SDS011;15267;47.838;12.128;2023-11-19T12:37:43;2.08;;;1.40;;
27925;SDS011;15267;47.838;12.128;2023-11-19T12:40:19;2.20;;;1.30;;
27925;SDS011;15267;47.838;12.128;2023-11-19T12:42:45;2.55;;;1.60;;
27925;SDS011;15267;47.838;12.128;2023-11-19T12:45:11;1.20;;;0.85;;
27925;SDS011;15267;47.838;12.128;2023-11-19T12:47:38;2.35;;;0.88;;
27925;SDS011;15267;47.838;12.128;2023-11-19T12:50:05;1.23;;;0.80;;
27925;SDS011;15267;47.838;12.128;2023-11-19T12:52:32;1.35;;;0.90;;
27925;SDS011;15267;47.838;12.128;2023-11-19T12:54:58;0.60;;;0.60;;
27925;SDS011;15267;47.838;12.128;2023-11-19T12:57:37;1.30;;;0.90;;
27925;SDS011;15267;47.838;12.128;2023-11-19T13:00:04;0.88;;;0.88;;
27925;SDS011;15267;47.838;12.128;2023-11-19T13:02:46;1.45;;;1.00;;
27925;SDS011;15267;47.838;12.128;2023-11-19T13:07:48;1.15;;;0.82;;
27925;SDS011;15267;47.838;12.128;2023-11-19T13:10:14;1.50;;;1.08;;
27925;SDS011;15267;47.838;12.128;2023-11-19T13:12:40;2.35;;;0.90;;
27925;SDS011;15267;47.838;12.128;2023-11-19T13:15:06;1.08;;;0.88;;
27925;SDS011;15267;47.838;12.128;2023-11-19T13:17:32;0.95;;;0.80;;
27925;SDS011;15267;47.838;12.128;2023-11-19T13:19:58;1.65;;;1.10;;
27925;SDS011;15267;47.838;12.128;2023-11-19T13:22:24;1.85;;;1.00;;
27925;SDS011;15267;47.838;12.128;2023-11-19T13:24:50;1.88;;;1.08;;
27925;SDS011;15267;47.838;12.128;2023-11-19T13:27:16;2.38;;;1.50;;
27925;SDS011;15267;47.838;12.128;2023-11-19T13:29:42;2.38;;;1.23;;
27925;SDS011;15267;47.838;12.128;2023-11-19T13:32:08;2.25;;;1.30;;
27925;SDS011;15267;47.838;12.128;2023-11-19T13:34:34;1.77;;;0.93;;
27925;SDS011;15267;47.838;12.128;2023-11-19T13:37:00;2.15;;;1.20;;
27925;SDS011;15267;47.838;12.128;2023-11-19T13:39:26;1.42;;;1.00;;
27925;SDS011;15267;47.838;12.128;2023-11-19T13:41:52;1.27;;;1.02;;
27925;SDS011;15267;47.838;12.128;2023-11-19T13:44:18;1.25;;;0.98;;
27925;SDS011;15267;47.838;12.128;2023-11-19T13:46:44;1.73;;;1.02;;
27925;SDS011;15267;47.838;12.128;2023-11-19T13:49:12;2.47;;;1.35;;
27925;SDS011;15267;47.838;12.128;2023-11-19T13:51:38;2.00;;;1.58;;
27925;SDS011;15267;47.838;12.128;2023-11-19T13:54:04;2.35;;;1.65;;
27925;SDS011;15267;47.838;12.128;2023-11-19T13:56:30;2.17;;;1.55;;
27925;SDS011;15267;47.838;12.128;2023-11-19T13:58:56;3.88;;;1.83;;
27925;SDS011;15267;47.838;12.128;2023-11-19T14:01:22;2.67;;;1.83;;
27925;SDS011;15267;47.838;12.128;2023-11-19T14:03:47;1.92;;;1.45;;
27925;SDS011;15267;47.838;12.128;2023-11-19T14:06:14;2.47;;;1.60;;
27925;SDS011;15267;47.838;12.128;2023-11-19T14:08:40;1.73;;;1.60;;
27925;SDS011;15267;47.838;12.128;2023-11-19T14:11:06;3.13;;;1.80;;
27925;SDS011;15267;47.838;12.128;2023-11-19T14:13:32;2.35;;;1.70;;
27925;SDS011;15267;47.838;12.128;2023-11-19T14:15:58;2.50;;;1.65;;
27925;SDS011;15267;47.838;12.128;2023-11-19T14:18:24;2.33;;;1.80;;
27925;SDS011;15267;47.838;12.128;2023-11-19T14:20:50;1.73;;;1.52;;
27925;SDS011;15267;47.838;12.128;2023-11-19T14:23:16;1.83;;;1.33;;
27925;SDS011;15267;47.838;12.128;2023-11-19T14:25:42;3.15;;;2.08;;
27925;SDS011;15267;47.838;12.128;2023-11-19T14:28:08;1.00;;;0.85;;
27925;SDS011;15267;47.838;12.128;2023-11-19T14:30:34;0.98;;;0.80;;
27925;SDS011;15267;47.838;12.128;2023-11-19T14:33:00;0.50;;;0.40;;
27925;SDS011;15267;47.838;12.128;2023-11-19T14:35:28;0.47;;;0.47;;
27925;SDS011;15267;47.838;12.128;2023-11-19T14:37:55;0.60;;;0.60;;
27925;SDS011;15267;47.838;12.128;2023-11-19T14:40:21;1.20;;;1.00;;
27925;SDS011;15267;47.838;12.128;2023-11-19T14:42:47;0.75;;;0.75;;
27925;SDS011;15267;47.838;12.128;2023-11-19T14:45:13;1.30;;;1.17;;
27925;SDS011;15267;47.838;12.128;2023-11-19T14:47:39;3.05;;;1.70;;
27925;SDS011;15267;47.838;12.128;2023-11-19T14:50:05;1.58;;;0.80;;
27925;SDS011;15267;47.838;12.128;2023-11-19T14:52:31;1.92;;;1.40;;
27925;SDS011;15267;47.838;12.128;2023-11-19T14:54:57;1.92;;;1.55;;